Time;durP1;ratioP1;P1;durP2;ratioP2;P2;SDS_P1;SDS_P2;PMS_P1;PMS_P2;Temp;Humidity;BMP_temperature;BMP_pressure;BME280_temperature;BME280_humidity;BME280_pressure;Samples;Min_cycle;Max_cycle;Signal;HPM_P1;HPM_P2
2023/08/23 00:01:31;;;;;;;4.75;3.55;;;15.90;99.90;;;;;;5021012;28;20505;-84
2023/08/23 00:03:57;;;;;;;4.85;3.72;;;15.90;99.90;;;;;;5013798;28;20024;-84
2023/08/23 00:06:23;;;;;;;4.60;3.65;;;15.80;99.90;;;;;;5024545;28;20041;-85
2023/08/23 00:08:49;;;;;;;4.78;4.28;;;15.90;99.90;;;;;;5020485;28;20017;-84
2023/08/23 00:11:14;;;;;;;7.28;3.90;;;15.80;99.90;;;;;;5023013;28;20068;-85
2023/08/23 00:13:40;;;;;;;4.55;3.65;;;15.80;99.90;;;;;;5011376;28;20049;-84
2023/08/23 00:16:05;;;;;;;10.07;5.10;;;15.80;99.90;;;;;;5025291;28;20021;-84
2023/08/23 00:18:31;;;;;;;5.07;3.67;;;15.70;99.90;;;;;;5035237;28;20025;-84
2023/08/23 00:20:56;;;;;;;5.40;3.80;;;15.80;99.90;;;;;;5046247;28;20017;-82
2023/08/23 00:23:22;;;;;;;5.18;4.10;;;15.70;99.90;;;;;;5027761;28;20030;-85
2023/08/23 00:25:47;;;;;;;8.45;4.30;;;15.70;99.90;;;;;;5028486;28;20018;-86
2023/08/23 00:28:15;;;;;;;5.53;4.95;;;15.70;99.90;;;;;;5026586;28;20088;-84
2023/08/23 00:30:51;;;;;;;8.88;5.40;;;15.60;99.90;;;;;;5021114;28;20027;-84
2023/08/23 00:33:17;;;;;;;;;;;15.70;99.90;;;;;;5012771;28;20026;-84
2023/08/23 00:35:42;;;;;;;6.53;5.00;;;15.70;99.90;;;;;;5020287;28;19909;-85
2023/08/23 00:38:08;;;;;;;7.95;5.22;;;15.70;99.90;;;;;;5014009;28;20396;-83
2023/08/23 00:40:34;;;;;;;7.00;5.15;;;15.70;99.90;;;;;;5013550;28;20392;-85
2023/08/23 00:42:59;;;;;;;4.53;4.00;;;15.60;99.90;;;;;;5013979;28;20032;-85
2023/08/23 00:45:26;;;;;;;7.40;4.15;;;15.60;99.90;;;;;;5020584;28;20388;-86
2023/08/23 00:47:52;;;;;;;6.18;4.47;;;15.60;99.90;;;;;;5013479;28;20025;-85
2023/08/23 00:50:18;;;;;;;5.78;4.32;;;15.50;99.90;;;;;;5015963;28;20029;-82
2023/08/23 00:52:43;;;;;;;8.02;5.10;;;15.60;99.90;;;;;;5022430;28;21337;-85
2023/08/23 00:55:09;;;;;;;5.40;4.60;;;15.50;99.90;;;;;;5023474;28;20022;-83
2023/08/23 00:57:35;;;;;;;10.40;6.30;;;15.50;99.90;;;;;;5018181;28;20499;-82
2023/08/23 01:00:00;;;;;;;10.50;5.68;;;15.50;99.90;;;;;;5005246;28;20488;-85
2023/08/23 01:02:26;;;;;;;7.18;5.55;;;15.50;99.90;;;;;;5007706;28;20030;-84
2023/08/23 01:04:51;;;;;;;7.03;5.70;;;15.50;99.90;;;;;;5020145;28;20134;-85
2023/08/23 01:07:44;;;;;;;9.00;5.43;;;15.50;99.90;;;;;;5016526;28;20080;-85
2023/08/23 01:10:15;;;;;;;9.45;6.03;;;15.50;99.90;;;;;;5007945;28;20052;-84
2023/08/23 01:12:47;;;;;;;13.65;7.43;;;15.50;99.90;;;;;;5024138;28;20113;-84
2023/08/23 01:15:14;;;;;;;10.02;6.78;;;15.50;99.90;;;;;;5016480;28;20481;-83
2023/08/23 01:17:42;;;;;;;9.45;6.40;;;15.50;99.90;;;;;;5019413;28;20030;-82
2023/08/23 01:20:13;;;;;;;7.50;6.22;;;15.50;99.90;;;;;;5016155;28;20443;-83
2023/08/23 01:22:44;;;;;;;7.20;5.78;;;15.50;99.90;;;;;;5017869;28;20033;-84
2023/08/23 01:25:10;;;;;;;9.88;5.68;;;15.40;99.90;;;;;;5019810;28;20461;-83
2023/08/23 01:27:35;;;;;;;11.07;6.70;;;15.40;99.90;;;;;;5018074;28;20026;-85
2023/08/23 01:30:01;;;;;;;9.70;7.32;;;15.40;99.90;;;;;;5022208;28;20040;-82
2023/08/23 01:32:38;;;;;;;10.25;8.15;;;15.30;99.90;;;;;;5011959;28;20039;-84
2023/08/23 01:35:18;;;;;;;10.40;7.93;;;15.30;99.90;;;;;;5019193;28;20108;-83
2023/08/23 01:37:47;;;;;;;11.65;7.70;;;15.20;99.90;;;;;;5015099;28;20037;-84
2023/08/23 01:40:14;;;;;;;12.80;7.45;;;15.30;99.90;;;;;;5019441;28;20029;-83
2023/08/23 01:42:40;;;;;;;11.32;8.48;;;15.30;99.90;;;;;;5017620;28;20022;-82
2023/08/23 01:45:07;;;;;;;13.73;8.50;;;15.20;99.90;;;;;;5018848;28;20025;-82
2023/08/23 01:47:32;;;;;;;11.93;8.23;;;15.30;99.90;;;;;;5020261;28;20022;-83
2023/08/23 01:49:58;;;;;;;10.68;8.07;;;15.30;99.90;;;;;;5022195;28;20018;-82
2023/08/23 01:52:24;;;;;;;11.60;8.43;;;15.20;99.90;;;;;;5021668;28;20425;-81
2023/08/23 01:54:49;;;;;;;8.75;7.32;;;15.20;99.90;;;;;;5021837;28;20030;-83
2023/08/23 01:57:15;;;;;;;11.45;7.63;;;15.20;99.90;;;;;;5023326;28;20392;-82
2023/08/23 01:59:40;;;;;;;9.77;7.40;;;15.20;99.90;;;;;;5022292;28;20030;-82
2023/08/23 02:02:06;;;;;;;11.10;7.55;;;15.20;99.90;;;;;;5021801;28;20044;-82
2023/08/23 02:04:31;;;;;;;9.23;7.10;;;15.20;99.90;;;;;;5019884;28;20030;-81
2023/08/23 02:06:57;;;;;;;10.52;9.23;;;15.20;99.90;;;;;;5024048;28;20437;-81
2023/08/23 02:09:22;;;;;;;17.48;9.63;;;15.20;99.90;;;;;;5023925;28;20623;-82
2023/08/23 02:11:48;;;;;;;12.50;8.15;;;15.10;99.90;;;;;;5021677;28;20018;-82
2023/08/23 02:14:13;;;;;;;13.45;8.27;;;15.10;99.90;;;;;;5022520;28;20037;-82
2023/08/23 02:16:39;;;;;;;10.57;8.80;;;15.10;99.90;;;;;;5019997;28;20029;-82
2023/08/23 02:19:04;;;;;;;13.10;8.75;;;15.00;99.90;;;;;;5021786;28;20037;-82
2023/08/23 02:21:30;;;;;;;11.02;8.10;;;15.00;99.90;;;;;;5017998;28;20033;-84
2023/08/23 02:23:56;;;;;;;16.13;9.85;;;15.00;99.90;;;;;;5021506;28;20033;-84
2023/08/23 02:26:21;;;;;;;9.32;7.63;;;15.00;99.90;;;;;;5020863;28;20035;-81
2023/08/23 02:28:47;;;;;;;11.02;8.10;;;15.00;99.90;;;;;;5021667;28;20041;-83
2023/08/23 02:31:12;;;;;;;14.60;8.07;;;15.00;99.90;;;;;;5022367;28;20064;-83
2023/08/23 02:33:38;;;;;;;12.48;8.82;;;15.00;99.90;;;;;;5021520;28;20072;-83
2023/08/23 02:36:04;;;;;;;13.25;8.93;;;14.90;99.90;;;;;;5020922;28;20481;-83
2023/08/23 02:38:29;;;;;;;10.48;7.72;;;14.90;99.90;;;;;;5019783;28;20075;-83
2023/08/23 02:40:55;;;;;;;9.55;8.25;;;14.90;99.90;;;;;;5020409;28;20503;-82
2023/08/23 02:43:22;;;;;;;11.85;9.50;;;14.90;99.90;;;;;;5022005;28;20029;-83
2023/08/23 02:45:47;;;;;;;13.13;9.68;;;14.90;99.90;;;;;;5017064;28;20021;-83
2023/08/23 02:48:13;;;;;;;15.90;10.27;;;14.90;99.90;;;;;;5022318;28;20029;-83
2023/08/23 02:50:39;;;;;;;14.80;9.57;;;14.90;99.90;;;;;;5016006;28;20715;-84
2023/08/23 02:53:04;;;;;;;12.25;10.38;;;14.90;99.90;;;;;;5021867;28;20392;-83
2023/08/23 02:55:30;;;;;;;14.27;9.93;;;14.90;99.90;;;;;;5012384;28;20033;-83
2023/08/23 02:57:55;;;;;;;13.45;10.25;;;14.90;99.90;;;;;;5022516;28;20724;-81
2023/08/23 03:00:21;;;;;;;16.15;9.48;;;14.90;99.90;;;;;;5011831;28;20041;-85
2023/08/23 03:02:46;;;;;;;16.38;10.05;;;14.90;99.90;;;;;;5018002;28;20449;-83
2023/08/23 03:05:12;;;;;;;17.17;10.18;;;14.90;99.90;;;;;;5016505;28;20082;-82
2023/08/23 03:07:38;;;;;;;14.38;11.05;;;14.90;99.90;;;;;;5018562;28;20056;-84
2023/08/23 03:10:04;;;;;;;15.00;10.60;;;14.90;99.90;;;;;;5019903;28;20121;-83
2023/08/23 03:12:29;;;;;;;15.13;10.85;;;15.00;99.90;;;;;;5021853;28;20056;-83
2023/08/23 03:14:55;;;;;;;16.83;11.68;;;14.90;99.90;;;;;;5020594;28;20029;-83
2023/08/23 03:17:20;;;;;;;15.65;11.93;;;14.90;99.90;;;;;;5012665;28;20057;-81
2023/08/23 03:19:46;;;;;;;21.15;13.25;;;14.90;99.90;;;;;;5021439;28;20029;-83
2023/08/23 03:22:11;;;;;;;24.60;13.35;;;14.90;99.90;;;;;;5021634;28;20060;-82
2023/08/23 03:24:37;;;;;;;17.30;12.48;;;15.00;99.90;;;;;;5017898;28;20116;-83
2023/08/23 03:27:03;;;;;;;16.42;11.50;;;15.00;99.90;;;;;;5021131;28;20099;-83
2023/08/23 03:29:28;;;;;;;18.45;11.77;;;15.00;99.90;;;;;;5019516;28;20030;-82
2023/08/23 03:31:54;;;;;;;16.42;11.85;;;15.00;99.90;;;;;;5015889;28;20072;-83
2023/08/23 03:34:19;;;;;;;20.52;13.63;;;15.00;99.90;;;;;;5015666;28;20941;-84
2023/08/23 03:36:45;;;;;;;19.60;12.38;;;15.00;99.90;;;;;;5020057;28;20427;-83
2023/08/23 03:39:10;;;;;;;18.80;12.23;;;15.00;99.90;;;;;;5015311;28;20026;-82
2023/08/23 03:41:36;;;;;;;19.00;13.23;;;15.00;99.90;;;;;;5015097;28;20099;-84
2023/08/23 03:44:01;;;;;;;20.92;12.60;;;15.00;99.90;;;;;;5021507;28;20026;-82
2023/08/23 03:46:27;;;;;;;17.77;11.93;;;15.00;99.90;;;;;;5016948;28;20018;-82
2023/08/23 03:48:52;;;;;;;16.77;10.88;;;15.10;99.90;;;;;;5020367;28;20022;-82
2023/08/23 03:51:18;;;;;;;17.58;12.07;;;15.10;99.90;;;;;;5018102;28;20026;-83
2023/08/23 03:53:44;;;;;;;21.92;12.13;;;15.10;99.90;;;;;;5020598;28;20029;-82
2023/08/23 03:56:09;;;;;;;14.63;11.38;;;15.10;99.90;;;;;;5018158;28;20448;-81
2023/08/23 03:58:35;;;;;;;23.85;14.05;;;15.10;99.90;;;;;;5020323;28;20076;-83
2023/08/23 04:01:01;;;;;;;17.60;13.75;;;15.10;99.90;;;;;;5023696;28;20049;-83
2023/08/23 04:03:27;;;;;;;21.88;14.63;;;15.20;99.90;;;;;;5017359;28;20420;-84
2023/08/23 04:05:52;;;;;;;18.10;12.80;;;15.20;99.90;;;;;;5018167;28;20029;-85
2023/08/23 04:08:18;;;;;;;18.35;14.02;;;15.20;99.90;;;;;;5018474;28;20026;-82
2023/08/23 04:10:50;;;;;;;20.38;13.63;;;15.20;99.90;;;;;;5019693;28;20908;-84
2023/08/23 04:13:17;;;;;;;17.58;12.95;;;15.30;99.90;;;;;;5025862;28;20030;-82
2023/08/23 04:15:43;;;;;;;19.92;14.43;;;15.30;99.90;;;;;;5033170;28;20010;-81
2023/08/23 04:18:09;;;;;;;18.90;14.07;;;15.30;99.90;;;;;;5040555;28;20064;-81
2023/08/23 04:20:36;;;;;;;16.08;12.48;;;15.30;99.90;;;;;;5037892;28;20025;-81
2023/08/23 04:23:02;;;;;;;21.80;15.43;;;15.30;99.90;;;;;;5024371;28;20074;-85
2023/08/23 04:25:27;;;;;;;18.73;13.65;;;15.30;99.90;;;;;;5024081;28;20654;-82
2023/08/23 04:27:53;;;;;;;21.52;14.55;;;15.30;99.90;;;;;;5026040;28;20018;-83
2023/08/23 04:30:18;;;;;;;16.70;13.15;;;15.30;99.90;;;;;;5022613;28;20130;-84
2023/08/23 04:32:44;;;;;;;19.13;13.13;;;15.30;99.90;;;;;;5022578;28;20083;-84
2023/08/23 04:35:10;;;;;;;19.02;13.93;;;15.30;99.90;;;;;;5022429;28;20026;-82
2023/08/23 04:37:36;;;;;;;16.33;11.57;;;15.30;99.90;;;;;;5023144;28;20037;-83
2023/08/23 04:40:01;;;;;;;14.18;11.43;;;15.30;99.90;;;;;;5023092;28;20067;-83
2023/08/23 04:42:31;;;;;;;14.88;11.32;;;15.30;99.90;;;;;;5019941;28;20018;-82
2023/08/23 04:44:59;;;;;;;16.75;11.73;;;15.30;99.90;;;;;;5023191;28;20024;-85
2023/08/23 04:47:25;;;;;;;17.70;13.40;;;15.30;99.90;;;;;;5018498;28;20064;-85
2023/08/23 04:49:50;;;;;;;16.33;11.85;;;15.30;99.90;;;;;;5022126;28;20025;-85
2023/08/23 04:52:16;;;;;;;17.27;12.85;;;15.30;99.90;;;;;;5013173;28;20077;-83
2023/08/23 04:54:41;;;;;;;15.95;12.80;;;15.30;99.90;;;;;;5017637;28;20052;-83
2023/08/23 04:57:07;;;;;;;12.07;10.48;;;15.30;99.90;;;;;;5019259;28;20488;-84
2023/08/23 04:59:32;;;;;;;14.30;11.57;;;15.30;99.90;;;;;;5018718;28;20413;-83
2023/08/23 05:01:58;;;;;;;15.23;12.45;;;15.20;99.90;;;;;;5019675;28;20029;-86
2023/08/23 05:04:24;;;;;;;13.30;11.95;;;15.30;99.90;;;;;;5015906;28;20620;-85
2023/08/23 05:06:49;;;;;;;13.32;11.05;;;15.30;99.90;;;;;;5011333;28;20014;-85
2023/08/23 05:09:15;;;;;;;13.10;11.57;;;15.30;99.90;;;;;;5026331;28;20025;-85
2023/08/23 05:11:41;;;;;;;11.55;10.18;;;15.30;99.90;;;;;;5030445;28;20527;-85
2023/08/23 05:14:06;;;;;;;11.45;10.02;;;15.40;99.90;;;;;;5018920;28;20030;-85
2023/08/23 05:16:32;;;;;;;9.65;8.65;;;15.40;99.90;;;;;;5011028;28;20428;-85
2023/08/23 05:18:57;;;;;;;10.55;9.48;;;15.40;99.90;;;;;;5010739;28;20400;-87
2023/08/23 05:21:23;;;;;;;13.70;10.80;;;15.40;99.90;;;;;;5010845;28;20022;-85
2023/08/23 05:23:50;;;;;;;9.05;8.15;;;15.40;99.90;;;;;;5022872;28;20021;-86
2023/08/23 05:26:16;;;;;;;11.18;9.82;;;15.50;99.90;;;;;;5014893;28;20033;-84
2023/08/23 05:28:41;;;;;;;11.02;9.70;;;15.50;99.90;;;;;;5027318;28;20026;-85
2023/08/23 05:31:07;;;;;;;12.90;9.82;;;15.50;99.90;;;;;;5021802;28;20034;-85
2023/08/23 05:33:33;;;;;;;15.32;12.40;;;15.60;99.90;;;;;;5029910;28;20029;-85
2023/08/23 05:35:58;;;;;;;15.30;11.07;;;15.60;99.90;;;;;;5015426;28;20056;-85
2023/08/23 05:38:24;;;;;;;13.68;11.38;;;15.60;99.90;;;;;;5014525;28;20049;-86
2023/08/23 05:40:51;;;;;;;13.70;11.25;;;15.60;99.90;;;;;;5026122;28;20022;-85
2023/08/23 05:43:17;;;;;;;15.45;11.15;;;15.70;99.90;;;;;;5018429;28;20030;-85
2023/08/23 05:45:43;;;;;;;13.45;9.85;;;15.60;99.90;;;;;;5026179;28;20378;-84
2023/08/23 05:48:09;;;;;;;14.48;9.82;;;15.70;99.90;;;;;;5031282;28;20033;-85
2023/08/23 05:50:35;;;;;;;13.45;10.35;;;15.70;99.90;;;;;;5020132;28;20030;-85
2023/08/23 05:53:00;;;;;;;18.60;10.93;;;15.70;99.90;;;;;;5021626;28;20448;-85
2023/08/23 05:55:26;;;;;;;13.43;9.98;;;15.80;99.90;;;;;;5023028;28;20479;-85
2023/08/23 05:57:51;;;;;;;11.55;9.57;;;15.80;99.90;;;;;;5022978;28;20080;-85
2023/08/23 06:00:17;;;;;;;11.60;7.95;;;15.90;99.90;;;;;;5028691;28;20040;-87
2023/08/23 06:02:43;;;;;;;12.63;9.27;;;15.90;99.90;;;;;;5030253;28;20065;-86
2023/08/23 06:05:11;;;;;;;11.70;8.98;;;16.00;99.90;;;;;;5018073;28;20060;-85
2023/08/23 06:07:37;;;;;;;11.10;8.50;;;16.00;99.90;;;;;;5020592;28;20182;-85
2023/08/23 06:10:03;;;;;;;13.10;9.32;;;16.00;99.90;;;;;;5024746;28;20029;-85
2023/08/23 06:12:29;;;;;;;10.90;9.18;;;16.10;99.90;;;;;;5023632;28;20644;-84
2023/08/23 06:14:55;;;;;;;14.57;11.48;;;16.20;99.90;;;;;;5024875;28;20029;-85
2023/08/23 06:17:21;;;;;;;10.30;7.97;;;16.20;99.90;;;;;;5020893;28;20034;-84
2023/08/23 06:19:46;;;;;;;11.10;8.48;;;16.30;99.90;;;;;;5019946;28;20045;-85
2023/08/23 06:22:12;;;;;;;11.20;8.52;;;16.30;99.90;;;;;;5024824;28;20026;-84
2023/08/23 06:24:37;;;;;;;10.93;7.95;;;16.40;99.90;;;;;;5021019;28;20018;-86
2023/08/23 06:27:03;;;;;;;9.68;7.72;;;16.40;99.90;;;;;;5018422;28;20414;-84
2023/08/23 06:29:28;;;;;;;10.00;7.40;;;16.50;99.90;;;;;;5027289;28;20341;-85
2023/08/23 06:31:54;;;;;;;8.90;7.72;;;16.60;99.90;;;;;;5023470;28;20089;-85
2023/08/23 06:34:20;;;;;;;14.65;7.78;;;16.60;99.90;;;;;;5022452;28;20052;-84
2023/08/23 06:36:45;;;;;;;14.73;8.60;;;16.70;99.90;;;;;;5019700;28;20109;-85
2023/08/23 06:39:11;;;;;;;14.32;8.73;;;16.80;99.90;;;;;;5023859;28;20029;-84
2023/08/23 06:41:39;;;;;;;10.05;7.45;;;16.80;99.90;;;;;;5020367;28;20073;-84
2023/08/23 06:44:05;;;;;;;10.90;6.72;;;16.90;99.90;;;;;;5012691;28;20063;-85
2023/08/23 06:46:31;;;;;;;10.18;6.97;;;16.90;99.90;;;;;;5020041;28;20109;-86
2023/08/23 06:48:56;;;;;;;9.50;6.50;;;17.00;99.90;;;;;;5024187;28;20022;-82
2023/08/23 06:51:23;;;;;;;10.88;6.90;;;17.10;99.90;;;;;;5019193;28;20029;-83
2023/08/23 06:53:51;;;;;;;7.35;6.30;;;17.20;99.90;;;;;;5025721;28;20048;-85
2023/08/23 06:56:17;;;;;;;9.00;5.90;;;17.40;99.90;;;;;;5017944;28;20057;-84
2023/08/23 06:58:43;;;;;;;10.65;5.43;;;17.40;99.90;;;;;;5026841;28;20508;-83
2023/08/23 07:01:14;;;;;;;5.60;4.10;;;17.60;99.90;;;;;;5017311;28;20092;-85
2023/08/23 07:03:44;;;;;;;7.25;4.57;;;17.70;99.90;;;;;;5018467;28;20033;-84
2023/08/23 07:06:12;;;;;;;7.05;5.10;;;17.70;99.90;;;;;;5020156;28;20477;-83
2023/08/23 07:08:37;;;;;;;5.25;4.18;;;17.80;99.90;;;;;;5019048;28;20033;-85
2023/08/23 07:11:03;;;;;;;5.47;3.47;;;17.90;99.90;;;;;;5019311;28;20400;-84
2023/08/23 07:13:29;;;;;;;3.47;3.20;;;18.10;99.90;;;;;;5018654;28;20189;-85
2023/08/23 07:15:55;;;;;;;5.75;3.13;;;18.20;99.90;;;;;;5025105;28;20101;-87
2023/08/23 07:18:20;;;;;;;3.97;3.05;;;18.20;99.90;;;;;;5018165;28;20116;-85
2023/08/23 07:20:46;;;;;;;7.95;4.40;;;18.20;99.90;;;;;;5021224;28;20021;-84
2023/08/23 07:23:11;;;;;;;4.78;3.85;;;18.10;99.90;;;;;;5021342;28;20040;-85
2023/08/23 07:25:37;;;;;;;5.13;4.03;;;18.10;99.90;;;;;;5017766;28;20028;-86
2023/08/23 07:28:03;;;;;;;10.02;4.60;;;18.20;99.90;;;;;;5023212;28;20504;-83
2023/08/23 07:30:28;;;;;;;6.03;4.47;;;18.30;99.90;;;;;;5018054;28;20064;-85
2023/08/23 07:32:54;;;;;;;6.90;4.63;;;18.60;99.90;;;;;;5026746;28;20030;-85
2023/08/23 07:35:19;;;;;;;7.03;5.35;;;18.70;99.90;;;;;;5013750;28;20032;-85
2023/08/23 07:37:45;;;;;;;7.55;5.28;;;18.90;99.90;;;;;;5013458;28;20021;-85
2023/08/23 07:40:11;;;;;;;7.15;5.15;;;18.90;99.90;;;;;;5021483;28;20030;-85
2023/08/23 07:42:37;;;;;;;8.55;5.65;;;19.10;99.90;;;;;;5019954;28;20018;-84
2023/08/23 07:45:03;;;;;;;7.88;6.57;;;19.20;99.90;;;;;;5020419;28;20053;-85
2023/08/23 07:47:28;;;;;;;8.55;5.82;;;19.30;99.90;;;;;;5020841;28;20025;-85
2023/08/23 07:49:54;;;;;;;9.23;6.60;;;19.30;99.90;;;;;;5018107;28;20022;-86
2023/08/23 07:52:20;;;;;;;9.27;5.95;;;19.50;99.90;;;;;;5017828;28;20024;-85
2023/08/23 07:54:45;;;;;;;10.82;6.13;;;19.70;99.90;;;;;;5020094;28;20132;-85
2023/08/23 07:57:11;;;;;;;7.97;5.75;;;19.90;99.90;;;;;;5023118;28;20025;-85
2023/08/23 07:59:37;;;;;;;8.82;5.50;;;20.10;99.90;;;;;;5020817;28;20042;-84
2023/08/23 08:02:02;;;;;;;6.07;4.38;;;20.40;99.90;;;;;;5016569;28;20027;-84
2023/08/23 08:04:29;;;;;;;7.32;3.75;;;20.50;99.90;;;;;;5015669;28;20019;-83
2023/08/23 08:06:56;;;;;;;6.00;3.63;;;20.60;99.90;;;;;;5022971;28;20021;-84
2023/08/23 08:09:21;;;;;;;4.90;3.17;;;20.60;99.90;;;;;;5021063;28;20025;-84
2023/08/23 08:11:47;;;;;;;4.32;3.25;;;20.60;99.90;;;;;;5017412;28;20395;-84
2023/08/23 08:14:12;;;;;;;5.32;3.25;;;20.50;99.90;;;;;;5023192;28;20026;-86
2023/08/23 08:16:38;;;;;;;3.88;3.30;;;20.40;99.90;;;;;;5040082;28;20021;-85
2023/08/23 08:19:04;;;;;;;5.50;3.75;;;20.30;99.90;;;;;;5041338;28;20101;-84
2023/08/23 08:21:29;;;;;;;6.25;4.28;;;20.30;99.90;;;;;;5021773;28;20063;-85
2023/08/23 08:23:55;;;;;;;4.35;2.95;;;20.20;99.90;;;;;;5022081;28;20014;-85
2023/08/23 08:26:21;;;;;;;4.70;2.03;;;20.10;99.90;;;;;;5013795;28;20444;-84
2023/08/23 08:28:46;;;;;;;2.03;1.45;;;19.90;99.90;;;;;;5019784;28;20083;-85
2023/08/23 08:31:13;;;;;;;5.15;1.90;;;19.80;99.90;;;;;;5019293;28;20489;-85
2023/08/23 08:33:39;;;;;;;3.22;2.10;;;19.80;99.90;;;;;;5019961;28;20032;-84
2023/08/23 08:36:04;;;;;;;4.30;1.80;;;19.90;99.90;;;;;;5019628;28;20021;-84
2023/08/23 08:38:33;;;;;;;3.42;1.65;;;20.00;99.90;;;;;;5017916;28;20026;-85
2023/08/23 08:40:59;;;;;;;5.78;1.85;;;20.20;99.90;;;;;;5014403;28;20587;-84
2023/08/23 08:43:25;;;;;;;3.20;1.88;;;20.40;99.90;;;;;;5021656;28;20018;-85
2023/08/23 08:45:50;;;;;;;2.38;2.17;;;20.70;99.90;;;;;;5016955;28;20076;-86
2023/08/23 08:48:17;;;;;;;2.33;2.13;;;20.80;99.90;;;;;;5023009;28;20025;-85
2023/08/23 08:50:43;;;;;;;3.78;2.00;;;20.80;99.90;;;;;;5016311;28;20083;-84
2023/08/23 08:53:17;;;;;;;3.63;2.15;;;20.80;99.90;;;;;;5021138;28;20025;-83
2023/08/23 08:55:46;;;;;;;3.22;1.85;;;21.00;99.90;;;;;;5012659;28;20032;-85
2023/08/23 08:58:19;;;;;;;3.97;1.83;;;21.10;99.90;;;;;;5024020;28;20175;-84
2023/08/23 09:00:47;;;;;;;1.25;1.13;;;21.00;99.90;;;;;;5017524;28;20053;-85
2023/08/23 09:03:13;;;;;;;4.93;1.83;;;21.00;99.90;;;;;;5012161;28;20249;-85
2023/08/23 09:05:39;;;;;;;3.85;2.20;;;21.00;99.90;;;;;;5022571;28;20140;-85
2023/08/23 09:08:06;;;;;;;5.78;2.08;;;21.00;99.90;;;;;;5017538;28;20060;-85
2023/08/23 09:10:32;;;;;;;1.80;1.40;;;20.90;99.90;;;;;;5017403;28;20032;-86
2023/08/23 09:12:57;;;;;;;1.98;1.45;;;20.90;99.90;;;;;;5016914;28;20026;-84
2023/08/23 09:15:26;;;;;;;3.55;2.35;;;20.90;99.90;;;;;;5024014;28;20395;-84
2023/08/23 09:17:54;;;;;;;1.50;1.30;;;21.00;99.90;;;;;;5010756;28;20033;-85
2023/08/23 09:20:20;;;;;;;1.73;1.60;;;21.00;99.90;;;;;;5015840;28;20448;-86
2023/08/23 09:22:53;;;;;;;2.50;1.65;;;21.20;99.90;;;;;;5022432;28;20018;-85
2023/08/23 09:25:19;;;;;;;3.15;1.52;;;21.20;99.90;;;;;;5011768;28;20030;-84
2023/08/23 09:27:44;;;;;;;3.58;1.92;;;21.30;99.90;;;;;;5021203;28;20691;-85
2023/08/23 09:30:12;;;;;;;1.67;1.50;;;21.40;99.90;;;;;;5012623;28;20030;-85
2023/08/23 09:32:39;;;;;;;3.80;1.52;;;21.40;99.90;;;;;;5025574;28;20026;-85
2023/08/23 09:35:15;;;;;;;3.92;1.70;;;21.40;99.90;;;;;;5015875;28;20026;-84
2023/08/23 09:37:46;;;;;;;2.67;1.45;;;21.50;99.90;;;;;;5018975;28;20136;-84
2023/08/23 09:40:23;;;;;;;1.95;1.35;;;21.50;99.90;;;;;;5019874;28;20049;-85
2023/08/23 09:42:52;;;;;;;3.70;1.60;;;21.50;99.90;;;;;;5019071;28;20104;-85
2023/08/23 09:45:20;;;;;;;2.78;1.30;;;21.60;99.90;;;;;;5018869;28;20709;-86
2023/08/23 09:47:51;;;;;;;1.77;1.10;;;21.60;99.90;;;;;;5018675;28;20029;-84
2023/08/23 09:50:22;;;;;;;2.20;1.05;;;21.60;99.90;;;;;;5011570;28;20481;-84
2023/08/23 09:52:56;;;;;;;1.27;1.17;;;21.70;99.90;;;;;;5018522;28;20033;-86
2023/08/23 09:55:22;;;;;;;2.72;1.58;;;21.70;99.90;;;;;;5017111;28;20106;-85
2023/08/23 09:57:48;;;;;;;9.15;6.03;;;21.60;99.90;;;;;;5010743;28;20029;-85
2023/08/23 10:00:15;;;;;;;2.55;1.63;;;21.60;99.90;;;;;;5019208;28;20037;-85
2023/08/23 10:02:41;;;;;;;1.58;1.48;;;21.60;99.90;;;;;;5010683;28;20481;-84
2023/08/23 10:05:11;;;;;;;3.25;1.40;;;21.60;99.90;;;;;;5018574;28;20068;-84
2023/08/23 10:07:38;;;;;;;1.38;1.17;;;21.60;99.90;;;;;;5017467;28;20025;-84
2023/08/23 10:10:06;;;;;;;1.67;1.30;;;21.60;99.90;;;;;;5022782;28;20053;-86
2023/08/23 10:12:33;;;;;;;2.80;1.20;;;21.60;99.90;;;;;;5022629;28;20040;-86
2023/08/23 10:15:00;;;;;;;2.08;1.48;;;21.60;99.90;;;;;;5023312;28;20029;-86
2023/08/23 10:17:28;;;;;;;3.28;1.75;;;21.60;99.90;;;;;;5022524;28;20036;-85
2023/08/23 10:19:54;;;;;;;1.67;1.40;;;21.70;99.90;;;;;;5020355;28;20062;-84
2023/08/23 10:22:20;;;;;;;3.28;1.48;;;21.70;99.90;;;;;;5018123;28;20022;-83
2023/08/23 10:24:47;;;;;;;1.63;1.30;;;21.80;99.90;;;;;;5012312;28;20076;-84
2023/08/23 10:27:13;;;;;;;3.88;1.50;;;21.80;99.90;;;;;;5018417;28;20485;-86
2023/08/23 10:29:39;;;;;;;1.55;1.10;;;21.90;99.90;;;;;;5024716;28;20030;-84
2023/08/23 10:32:08;;;;;;;1.25;1.13;;;21.90;99.90;;;;;;5023284;28;20496;-85
2023/08/23 10:34:35;;;;;;;3.00;1.10;;;22.00;99.90;;;;;;5020347;28;20543;-86
2023/08/23 10:37:11;;;;;;;1.70;1.45;;;22.00;99.90;;;;;;5018886;28;20038;-86
2023/08/23 10:39:37;;;;;;;2.72;0.95;;;21.90;99.90;;;;;;5019102;28;20030;-86
2023/08/23 10:42:04;;;;;;;1.67;0.98;;;21.90;99.90;;;;;;5020332;28;20038;-83
2023/08/23 10:44:30;;;;;;;3.33;1.13;;;21.80;99.90;;;;;;5015936;28;20053;-84
2023/08/23 10:46:58;;;;;;;1.38;1.00;;;21.80;99.90;;;;;;5021912;28;20041;-84
2023/08/23 10:49:25;;;;;;;1.80;1.02;;;21.80;99.90;;;;;;5020204;28;20122;-84
2023/08/23 10:51:52;;;;;;;2.47;1.13;;;22.00;99.90;;;;;;5013517;28;20029;-85
2023/08/23 10:54:18;;;;;;;2.47;1.15;;;22.00;99.90;;;;;;5021843;28;20034;-86
2023/08/23 10:56:44;;;;;;;2.67;1.70;;;22.00;99.90;;;;;;5020660;28;20073;-84
2023/08/23 10:59:09;;;;;;;1.23;1.10;;;22.00;99.90;;;;;;5021045;28;20025;-83
2023/08/23 11:01:37;;;;;;;1.83;1.30;;;21.90;99.90;;;;;;5025318;28;20120;-86
2023/08/23 11:04:03;;;;;;;3.42;1.30;;;22.00;99.90;;;;;;5020347;28;20087;-85
2023/08/23 11:06:30;;;;;;;3.15;1.38;;;22.10;99.90;;;;;;5018559;28;20017;-85
2023/08/23 11:08:56;;;;;;;1.15;1.05;;;22.10;99.90;;;;;;5018808;28;20133;-85
2023/08/23 11:11:25;;;;;;;1.35;1.10;;;22.10;99.90;;;;;;5021469;28;20028;-85
2023/08/23 11:13:51;;;;;;;1.92;1.13;;;22.10;99.90;;;;;;5006809;28;20083;-86
2023/08/23 11:16:17;;;;;;;2.22;0.82;;;22.20;99.90;;;;;;5021346;28;20493;-85
2023/08/23 11:18:42;;;;;;;1.80;0.98;;;22.20;99.90;;;;;;5017187;28;20030;-85
2023/08/23 11:21:09;;;;;;;2.03;0.95;;;22.30;99.90;;;;;;5016116;28;20022;-84
2023/08/23 11:23:37;;;;;;;2.50;1.00;;;22.30;99.90;;;;;;5018561;28;20022;-84
2023/08/23 11:26:03;;;;;;;3.80;1.40;;;22.40;99.90;;;;;;5019864;28;20025;-84
2023/08/23 11:28:30;;;;;;;2.88;1.40;;;22.40;99.90;;;;;;5019444;28;20105;-84
2023/08/23 11:30:57;;;;;;;1.58;1.08;;;22.40;99.90;;;;;;5015939;28;20026;-86
2023/08/23 11:33:23;;;;;;;1.40;1.30;;;22.50;99.90;;;;;;5018489;28;20033;-84
2023/08/23 11:35:49;;;;;;;1.67;1.27;;;22.60;99.90;;;;;;5024846;28;20638;-85
2023/08/23 11:38:14;;;;;;;1.55;1.00;;;22.60;99.90;;;;;;5016447;28;20053;-83
2023/08/23 11:40:40;;;;;;;1.00;1.00;;;22.70;99.90;;;;;;5019998;28;20109;-86
2023/08/23 11:43:07;;;;;;;2.03;1.17;;;22.70;99.90;;;;;;5020367;28;20418;-86
2023/08/23 11:45:37;;;;;;;1.00;0.90;;;22.80;99.90;;;;;;5018987;28;20114;-85
2023/08/23 11:48:03;;;;;;;1.27;1.15;;;22.80;99.90;;;;;;5020299;28;20052;-85
2023/08/23 11:50:30;;;;;;;1.92;1.45;;;22.80;99.90;;;;;;5020981;28;20393;-85
2023/08/23 11:52:56;;;;;;;1.50;1.13;;;22.90;99.90;;;;;;5015958;28;20030;-85
2023/08/23 11:55:27;;;;;;;2.90;1.33;;;23.00;99.90;;;;;;5007959;28;20033;-87
2023/08/23 11:57:57;;;;;;;1.20;1.10;;;23.10;99.90;;;;;;5018995;28;20448;-86
2023/08/23 12:00:23;;;;;;;3.28;1.55;;;23.20;99.90;;;;;;4983783;28;1050107;-85
2023/08/23 12:02:49;;;;;;;1.23;1.10;;;23.30;99.90;;;;;;5016002;28;20018;-87
2023/08/23 12:05:16;;;;;;;1.40;1.00;;;23.30;99.90;;;;;;5022401;28;20017;-85
2023/08/23 12:07:41;;;;;;;1.83;1.33;;;23.30;99.90;;;;;;5018215;28;20117;-85
2023/08/23 12:10:11;;;;;;;4.65;1.33;;;23.40;99.90;;;;;;5012431;28;20113;-85
2023/08/23 12:12:37;;;;;;;1.10;0.93;;;23.40;99.90;;;;;;5044012;28;20026;-84
2023/08/23 12:15:04;;;;;;;2.85;0.88;;;23.50;99.90;;;;;;5030994;28;20030;-86
2023/08/23 12:17:29;;;;;;;3.03;1.30;;;23.50;99.90;;;;;;5022342;28;20125;-86
2023/08/23 12:19:55;;;;;;;3.80;0.95;;;23.60;99.90;;;;;;5019393;28;20045;-82
2023/08/23 12:22:21;;;;;;;0.80;0.80;;;23.60;99.90;;;;;;5024973;28;20266;-83
2023/08/23 12:24:46;;;;;;;1.70;1.23;;;23.70;99.90;;;;;;5018056;28;20540;-83
2023/08/23 12:27:12;;;;;;;1.52;1.27;;;23.70;99.90;;;;;;5024453;28;20072;-83
2023/08/23 12:29:38;;;;;;;3.13;1.10;;;23.80;99.90;;;;;;5020914;28;20025;-83
2023/08/23 12:32:08;;;;;;;1.70;0.70;;;23.80;99.90;;;;;;5022521;28;20129;-82
2023/08/23 12:34:34;;;;;;;1.50;1.00;;;23.90;99.90;;;;;;5020609;28;20144;-84
2023/08/23 12:37:00;;;;;;;0.93;0.88;;;23.90;99.90;;;;;;5019181;28;20125;-83